Time;durP1;ratioP1;P1;durP2;ratioP2;P2;SDS_P1;SDS_P2;PMS_P1;PMS_P2;Temp;Humidity;BMP_temperature;BMP_pressure;BME280_temperature;BME280_humidity;BME280_pressure;Samples;Min_cycle;Max_cycle;Signal;HPM_P1;HPM_P2
2021/01/30 00:00:38;;;;;;;;;6.75;3.75;;;;;;;;5025627;28;10435;-80
2021/01/30 00:03:06;;;;;;;;;2.00;2.00;;;;;;;;5026110;28;10582;-86
2021/01/30 00:05:33;;;;;;;;;6.00;2.00;;;;;;;;5029311;28;10464;-84
2021/01/30 00:08:00;;;;;;;;;1.75;1.75;;;;;;;;5040777;28;10548;-82
2021/01/30 00:10:28;;;;;;;;;2.25;2.25;;;;;;;;5040454;28;10431;-81
2021/01/30 00:12:55;;;;;;;;;5.50;2.00;;;;;;;;5028440;28;10344;-78
2021/01/30 00:15:24;;;;;;;;;8.25;2.00;;;;;;;;5035284;28;10560;-76
2021/01/30 00:17:52;;;;;;;;;5.25;2.00;;;;;;;;5034320;28;10467;-78
2021/01/30 00:20:21;;;;;;;;;6.25;2.75;;;;;;;;5028029;28;10427;-84
2021/01/30 00:22:49;;;;;;;;;4.00;3.50;;;;;;;;5034293;28;10427;-89
2021/01/30 00:25:16;;;;;;;;;6.25;6.00;;;;;;;;5031324;28;10629;-87
2021/01/30 00:27:43;;;;;;;;;6.00;6.00;;;;;;;;5034362;28;10488;-84
2021/01/30 00:30:13;;;;;;;;;3.50;3.50;;;;;;;;5009561;28;10630;-80
2021/01/30 00:32:41;;;;;;;;;4.50;2.00;;;;;;;;5029914;28;10420;-86
2021/01/30 00:35:09;;;;;;;;;1.00;1.00;;;;;;;;5043047;28;10395;-84
2021/01/30 00:37:35;;;;;;;;;5.00;5.00;;;;;;;;5022209;28;11241;-84
2021/01/30 00:40:03;;;;;;;;;3.00;1.50;;;;;;;;5030897;28;10572;-81
2021/01/30 00:42:30;;;;;;;;;8.50;2.75;;;;;;;;5036809;28;10392;-84
2021/01/30 00:44:57;;;;;;;;;5.00;2.00;;;;;;;;5040859;28;10467;-84
2021/01/30 00:47:23;;;;;;;;;2.25;1.00;;;;;;;;5032455;28;10305;-87
2021/01/30 00:49:51;;;;;;;;;3.00;3.00;;;;;;;;5031830;28;10380;-85
2021/01/30 00:52:20;;;;;;;;;2.00;2.00;;;;;;;;5039352;28;10358;-84
2021/01/30 00:54:47;;;;;;;;;10.00;3.00;;;;;;;;5022064;28;10415;-86
2021/01/30 00:57:14;;;;;;;;;3.50;2.00;;;;;;;;5008323;28;11129;-86
2021/01/30 00:59:41;;;;;;;;;4.50;2.00;;;;;;;;5028678;28;10440;-84
2021/01/30 01:02:08;;;;;;;;;3.50;1.50;;;;;;;;5025400;28;10537;-83
2021/01/30 01:04:35;;;;;;;;;1.00;1.00;;;;;;;;5032428;28;10439;-85
2021/01/30 01:07:03;;;;;;;;;0.50;0.50;;;;;;;;5024876;28;10308;-85
2021/01/30 01:09:30;;;;;;;;;2.00;2.00;;;;;;;;5034281;28;10468;-85
2021/01/30 01:11:57;;;;;;;;;1.75;1.75;;;;;;;;5032743;28;10375;-84
2021/01/30 01:14:26;;;;;;;;;9.00;1.00;;;;;;;;5037954;28;10373;-82
2021/01/30 01:16:54;;;;;;;;;4.50;2.00;;;;;;;;5033411;28;10516;-85
2021/01/30 01:19:20;;;;;;;;;2.50;2.50;;;;;;;;5024061;28;10529;-81
2021/01/30 01:21:50;;;;;;;;;6.00;3.50;;;;;;;;5032486;28;10566;-83
2021/01/30 01:24:19;;;;;;;;;6.00;4.00;;;;;;;;5027098;28;10585;-80
2021/01/30 01:26:47;;;;;;;;;5.75;2.00;;;;;;;;5036910;28;10589;-87
2021/01/30 01:29:16;;;;;;;;;5.50;3.00;;;;;;;;5030641;28;10561;-87
2021/01/30 01:31:42;;;;;;;;;10.00;5.25;;;;;;;;5026158;28;10649;-85
2021/01/30 01:34:09;;;;;;;;;6.50;4.50;;;;;;;;5034098;28;10637;-86
2021/01/30 01:36:36;;;;;;;;;3.50;2.00;;;;;;;;5027677;28;10620;-89
2021/01/30 01:39:03;;;;;;;;;3.00;3.00;;;;;;;;5026650;28;11401;-81
2021/01/30 01:41:31;;;;;;;;;3.00;3.00;;;;;;;;5024937;28;10711;-84
2021/01/30 01:43:57;;;;;;;;;5.00;2.50;;;;;;;;5036831;28;10671;-87
2021/01/30 01:46:27;;;;;;;;;4.00;1.50;;;;;;;;5033816;28;10673;-85
2021/01/30 01:49:01;;;;;;;;;5.00;3.50;;;;;;;;5036059;28;10655;-79
2021/01/30 01:51:37;;;;;;;;;6.00;3.00;;;;;;;;5027309;28;10819;-84
2021/01/30 01:54:07;;;;;;;;;3.00;3.00;;;;;;;;5036301;28;10793;-85
2021/01/30 01:56:36;;;;;;;;;8.75;4.00;;;;;;;;5028094;28;10745;-81
2021/01/30 01:59:08;;;;;;;;;3.00;3.00;;;;;;;;5024099;28;10677;-80
2021/01/30 02:01:37;;;;;;;;;6.00;3.50;;;;;;;;5041085;28;10710;-86
2021/01/30 02:04:07;;;;;;;;;4.00;2.50;;;;;;;;5026277;28;10844;-85
2021/01/30 02:06:37;;;;;;;;;4.00;4.00;;;;;;;;5036510;28;10708;-86
2021/01/30 02:09:07;;;;;;;;;2.00;2.00;;;;;;;;5034856;28;10619;-88
2021/01/30 02:11:35;;;;;;;;;6.50;3.00;;;;;;;;5044571;28;10644;-87
2021/01/30 02:14:02;;;;;;;;;2.75;2.75;;;;;;;;5034765;28;10641;-85
2021/01/30 02:16:36;;;;;;;;;5.75;4.00;;;;;;;;5037177;28;10592;-85
2021/01/30 02:19:40;;;;;;;;;2.50;2.50;;;;;;;;5041672;28;10864;-85
2021/01/30 02:22:39;;;;;;;;;3.00;3.00;;;;;;;;5020634;28;10721;-84
2021/01/30 02:25:36;;;;;;;;;5.00;3.75;;;;;;;;5022162;28;10711;-87
2021/01/30 02:28:19;;;;;;;;;7.75;4.00;;;;;;;;5001389;28;10636;-84
2021/01/30 02:31:07;;;;;;;;;5.50;5.50;;;;;;;;5025974;28;10592;-83
2021/01/30 02:34:04;;;;;;;;;6.50;5.00;;;;;;;;5027666;28;10752;-86
2021/01/30 02:36:38;;;;;;;;;6.50;5.00;;;;;;;;5033597;28;10690;-86
2021/01/30 02:39:11;;;;;;;;;3.00;3.00;;;;;;;;5037381;28;10650;-88
2021/01/30 02:41:42;;;;;;;;;2.75;2.00;;;;;;;;5029673;28;10689;-89
2021/01/30 02:44:12;;;;;;;;;6.75;2.50;;;;;;;;5018310;28;10418;-88
2021/01/30 02:46:43;;;;;;;;;5.75;5.00;;;;;;;;5029945;28;10479;-87
2021/01/30 02:49:14;;;;;;;;;8.00;6.50;;;;;;;;5016928;28;10646;-85
2021/01/30 02:51:44;;;;;;;;;4.00;4.00;;;;;;;;5024640;28;10715;-81
2021/01/30 02:54:12;;;;;;;;;6.50;6.50;;;;;;;;5028308;28;10604;-88
2021/01/30 02:56:40;;;;;;;;;5.75;5.00;;;;;;;;5024106;28;10464;-88
2021/01/30 02:59:10;;;;;;;;;5.00;5.00;;;;;;;;5023705;28;10569;-89
2021/01/30 03:01:38;;;;;;;;;8.50;5.75;;;;;;;;5009658;28;11328;-87
2021/01/30 03:04:07;;;;;;;;;2.00;1.00;;;;;;;;5024389;28;10776;-85
2021/01/30 03:06:41;;;;;;;;;8.75;5.75;;;;;;;;5024648;28;10640;-82
2021/01/30 03:09:13;;;;;;;;;7.00;5.75;;;;;;;;5032191;28;10412;-85
2021/01/30 03:11:46;;;;;;;;;6.50;5.00;;;;;;;;5007085;28;10731;-86
2021/01/30 03:14:18;;;;;;;;;6.50;5.25;;;;;;;;5028927;28;10424;-82
2021/01/30 03:16:45;;;;;;;;;10.75;6.50;;;;;;;;5036810;28;11298;-82
2021/01/30 03:19:16;;;;;;;;;10.50;7.50;;;;;;;;5030236;28;10572;-80
2021/01/30 03:21:46;;;;;;;;;7.75;5.00;;;;;;;;5028205;28;10813;-80
2021/01/30 03:24:13;;;;;;;;;5.25;5.25;;;;;;;;5018364;28;10675;-84
2021/01/30 03:26:42;;;;;;;;;7.00;6.25;;;;;;;;5029858;28;10588;-78
2021/01/30 03:29:10;;;;;;;;;5.50;5.50;;;;;;;;5035614;28;10652;-85
2021/01/30 03:31:38;;;;;;;;;8.50;4.75;;;;;;;;5034859;28;10519;-86
2021/01/30 03:34:05;;;;;;;;;4.00;4.00;;;;;;;;5013700;28;10589;-82
2021/01/30 03:36:32;;;;;;;;;7.00;5.75;;;;;;;;5029288;28;10626;-87
2021/01/30 03:39:00;;;;;;;;;6.75;5.00;;;;;;;;5026662;28;10563;-85
2021/01/30 03:41:27;;;;;;;;;8.00;5.75;;;;;;;;5038081;28;10518;-83
2021/01/30 03:43:54;;;;;;;;;7.00;7.00;;;;;;;;5021408;28;10500;-86
2021/01/30 03:46:21;;;;;;;;;6.75;3.00;;;;;;;;5030330;28;10646;-81
2021/01/30 03:48:48;;;;;;;;;7.00;5.00;;;;;;;;5035525;28;10448;-84
2021/01/30 03:51:15;;;;;;;;;7.25;7.00;;;;;;;;5035769;28;10567;-81
2021/01/30 03:53:41;;;;;;;;;5.00;5.00;;;;;;;;5034179;28;10639;-81
2021/01/30 03:56:10;;;;;;;;;9.75;5.75;;;;;;;;5032046;28;10624;-83
2021/01/30 03:58:38;;;;;;;;;12.50;7.00;;;;;;;;5027159;28;10649;-82
2021/01/30 04:01:05;;;;;;;;;6.75;5.00;;;;;;;;5030819;28;10735;-84
2021/01/30 04:03:32;;;;;;;;;8.50;6.25;;;;;;;;5027132;28;10640;-80
2021/01/30 04:06:00;;;;;;;;;8.00;6.00;;;;;;;;5036313;28;10646;-78
2021/01/30 04:08:26;;;;;;;;;10.00;7.75;;;;;;;;5030500;28;10582;-79
2021/01/30 04:10:54;;;;;;;;;7.00;7.00;;;;;;;;5029571;28;10629;-79
2021/01/30 04:13:21;;;;;;;;;14.50;7.75;;;;;;;;5029097;28;10643;-78
2021/01/30 04:15:48;;;;;;;;;10.25;7.25;;;;;;;;5038793;28;10637;-79
2021/01/30 04:18:15;;;;;;;;;10.50;7.00;;;;;;;;5040128;28;10672;-81
2021/01/30 04:20:42;;;;;;;;;4.00;3.50;;;;;;;;5030693;28;10553;-82
2021/01/30 04:23:09;;;;;;;;;7.75;6.25;;;;;;;;5037126;28;10576;-78
2021/01/30 04:25:36;;;;;;;;;8.25;8.25;;;;;;;;5028786;28;10631;-80
2021/01/30 04:28:03;;;;;;;;;6.00;6.00;;;;;;;;5013149;28;11565;-76
2021/01/30 04:30:31;;;;;;;;;14.75;8.25;;;;;;;;5025889;28;10622;-77
2021/01/30 04:32:59;;;;;;;;;12.50;6.50;;;;;;;;5026022;28;10792;-81
2021/01/30 04:35:28;;;;;;;;;7.50;7.50;;;;;;;;5032163;28;10758;-76
2021/01/30 04:37:55;;;;;;;;;9.75;9.75;;;;;;;;5026292;28;10571;-81
2021/01/30 04:40:27;;;;;;;;;8.25;6.25;;;;;;;;5032232;28;10631;-77
2021/01/30 04:43:00;;;;;;;;;8.25;6.00;;;;;;;;5044603;28;10729;-82
2021/01/30 04:45:39;;;;;;;;;9.75;8.25;;;;;;;;5028412;28;10703;-83
2021/01/30 04:48:14;;;;;;;;;6.75;6.75;;;;;;;;5029531;28;10675;-86
2021/01/30 04:50:48;;;;;;;;;8.25;7.75;;;;;;;;5024050;28;10721;-77
2021/01/30 04:53:20;;;;;;;;;8.00;7.75;;;;;;;;5034122;28;10654;-86
2021/01/30 04:55:56;;;;;;;;;8.50;8.50;;;;;;;;5031343;28;11575;-86
2021/01/30 04:58:33;;;;;;;;;9.00;9.00;;;;;;;;5013983;28;10729;-78
2021/01/30 05:01:12;;;;;;;;;10.25;6.00;;;;;;;;5038109;28;11434;-80
2021/01/30 05:04:07;;;;;;;;;12.50;10.00;;;;;;;;5042505;28;10640;-87
2021/01/30 05:06:43;;;;;;;;;6.00;6.00;;;;;;;;5025143;28;10668;-86
2021/01/30 05:09:15;;;;;;;;;11.50;10.25;;;;;;;;5030467;28;10662;-83
2021/01/30 05:11:48;;;;;;;;;6.50;6.00;;;;;;;;5029731;28;10619;-82
2021/01/30 05:14:18;;;;;;;;;11.00;8.50;;;;;;;;5038185;28;10595;-84
2021/01/30 05:16:56;;;;;;;;;10.25;6.00;;;;;;;;5026540;28;10507;-85
2021/01/30 05:19:23;;;;;;;;;7.25;5.75;;;;;;;;5038473;28;10511;-80
2021/01/30 05:21:55;;;;;;;;;7.75;7.50;;;;;;;;5024337;28;10575;-88
2021/01/30 05:24:25;;;;;;;;;7.50;6.75;;;;;;;;5038944;28;10464;-85
2021/01/30 05:26:59;;;;;;;;;12.50;8.00;;;;;;;;5024772;28;11431;-87
2021/01/30 05:29:29;;;;;;;;;10.25;7.75;;;;;;;;5033195;28;10663;-86
2021/01/30 05:32:12;;;;;;;;;6.25;5.00;;;;;;;;5024326;28;11388;-86
2021/01/30 05:34:47;;;;;;;;;6.00;6.00;;;;;;;;5021714;28;10491;-89
2021/01/30 05:37:17;;;;;;;;;7.00;5.25;;;;;;;;5032932;28;10483;-87
2021/01/30 05:40:15;;;;;;;;;10.25;5.00;;;;;;;;5029657;28;10325;-83
2021/01/30 05:42:49;;;;;;;;;6.00;4.00;;;;;;;;5027281;28;10468;-88
2021/01/30 05:45:33;;;;;;;;;5.75;5.25;;;;;;;;5023367;28;11140;-85
2021/01/30 05:48:02;;;;;;;;;7.00;6.00;;;;;;;;5041027;28;10358;-83
2021/01/30 05:50:35;;;;;;;;;7.00;7.00;;;;;;;;5035552;28;10556;-85
2021/01/30 05:53:02;;;;;;;;;3.00;3.00;;;;;;;;5034516;28;10371;-87
2021/01/30 05:55:32;;;;;;;;;5.00;5.00;;;;;;;;5026793;28;10438;-87
2021/01/30 05:58:03;;;;;;;;;3.50;2.00;;;;;;;;5027775;28;10371;-88
2021/01/30 06:00:30;;;;;;;;;7.00;7.00;;;;;;;;5021922;28;10250;-87
2021/01/30 06:03:05;;;;;;;;;8.00;6.75;;;;;;;;5024284;28;10482;-92
2021/01/30 06:05:33;;;;;;;;;7.00;5.25;;;;;;;;5026253;28;10480;-85
2021/01/30 06:08:31;;;;;;;;;4.00;4.00;;;;;;;;5029233;28;10484;-82
2021/01/30 06:11:08;;;;;;;;;4.25;2.75;;;;;;;;4938755;29;10410;-78
2021/01/30 06:13:35;;;;;;;;;5.25;5.25;;;;;;;;5020192;28;10478;-79
2021/01/30 06:16:03;;;;;;;;;7.25;5.00;;;;;;;;5040619;28;10426;-82
2021/01/30 06:18:34;;;;;;;;;5.00;4.50;;;;;;;;5032403;28;10328;-81
2021/01/30 06:21:13;;;;;;;;;6.50;3.00;;;;;;;;5005189;28;10400;-79
2021/01/30 06:23:41;;;;;;;;;1.00;1.00;;;;;;;;5038059;28;10371;-80
2021/01/30 06:26:17;;;;;;;;;6.00;5.00;;;;;;;;5034449;28;10375;-82
2021/01/30 06:28:47;;;;;;;;;6.50;3.00;;;;;;;;5024672;28;10442;-84
2021/01/30 06:31:23;;;;;;;;;2.00;2.00;;;;;;;;5024219;28;10363;-74
2021/01/30 06:33:52;;;;;;;;;1.50;1.50;;;;;;;;5037740;28;10303;-82
2021/01/30 06:36:22;;;;;;;;;1.00;1.00;;;;;;;;5026656;28;10278;-81
2021/01/30 06:38:52;;;;;;;;;1.00;1.00;;;;;;;;5045089;28;10196;-80
2021/01/30 06:41:22;;;;;;;;;1.00;1.00;;;;;;;;5027414;28;10197;-83
2021/01/30 06:43:53;;;;;;;;;1.00;1.00;;;;;;;;5007184;28;10187;-79
2021/01/30 06:46:23;;;;;;;;;1.00;1.00;;;;;;;;5040500;28;10189;-82
2021/01/30 06:48:53;;;;;;;;;4.00;1.25;;;;;;;;5027050;28;10250;-81
2021/01/30 06:51:31;;;;;;;;;1.50;1.00;;;;;;;;5025044;28;10188;-82
2021/01/30 06:54:22;;;;;;;;;1.00;1.00;;;;;;;;5014503;28;10106;-86
2021/01/30 06:57:01;;;;;;;;;1.00;1.00;;;;;;;;5025058;28;10387;-82
2021/01/30 06:59:30;;;;;;;;;0.00;0.00;;;;;;;;5032108;28;10289;-83
2021/01/30 07:01:57;;;;;;;;;2.00;0.00;;;;;;;;5048742;28;10233;-82
2021/01/30 07:04:47;;;;;;;;;2.00;0.75;;;;;;;;5048442;28;10140;-81
2021/01/30 07:07:22;;;;;;;;;1.00;1.00;;;;;;;;5042092;28;10240;-81
2021/01/30 07:10:15;;;;;;;;;0.25;0.25;;;;;;;;5044442;28;10243;-82
2021/01/30 07:12:52;;;;;;;;;0.00;0.00;;;;;;;;5024691;28;10186;-79
2021/01/30 07:15:23;;;;;;;;;0.00;0.00;;;;;;;;5042925;28;10190;-81
2021/01/30 07:18:17;;;;;;;;;1.25;1.25;;;;;;;;5047149;28;10100;-79
2021/01/30 07:20:55;;;;;;;;;0.00;0.00;;;;;;;;5029834;28;10341;-88
2021/01/30 07:23:28;;;;;;;;;0.25;0.25;;;;;;;;5011275;28;10269;-83
2021/01/30 07:26:03;;;;;;;;;2.00;0.00;;;;;;;;5026541;28;10761;-83
2021/01/30 07:28:36;;;;;;;;;0.00;0.00;;;;;;;;5034782;28;10300;-80
2021/01/30 07:31:11;;;;;;;;;2.25;1.00;;;;;;;;5030389;28;10089;-70
2021/01/30 07:33:47;;;;;;;;;2.50;2.50;;;;;;;;5020888;28;10975;-70
2021/01/30 07:36:18;;;;;;;;;7.75;7.75;;;;;;;;5025872;28;10322;-70
2021/01/30 07:38:49;;;;;;;;;4.50;2.75;;;;;;;;5024920;28;10501;-69
2021/01/30 07:41:24;;;;;;;;;0.00;0.00;;;;;;;;5025773;28;10351;-72
2021/01/30 07:43:55;;;;;;;;;1.00;1.00;;;;;;;;5024702;28;10084;-70
2021/01/30 07:46:26;;;;;;;;;0.75;0.75;;;;;;;;5029693;28;10287;-70
2021/01/30 07:48:56;;;;;;;;;0.00;0.00;;;;;;;;5024937;28;10146;-70
2021/01/30 07:51:26;;;;;;;;;1.00;0.00;;;;;;;;5023055;28;10796;-70
2021/01/30 07:53:52;;;;;;;;;0.00;0.00;;;;;;;;5026000;28;10116;-71
2021/01/30 07:56:35;;;;;;;;;3.00;2.00;;;;;;;;5022039;28;9939;-70
2021/01/30 07:59:22;;;;;;;;;0.50;0.50;;;;;;;;5024885;28;10136;-70
2021/01/30 08:02:17;;;;;;;;;3.00;3.00;;;;;;;;5025175;28;10079;-69
2021/01/30 08:05:13;;;;;;;;;0.00;0.00;;;;;;;;4999642;28;10124;-70
2021/01/30 08:07:46;;;;;;;;;0.50;0.50;;;;;;;;4991275;28;10090;-70
2021/01/30 08:10:20;;;;;;;;;0.00;0.00;;;;;;;;5026625;28;10870;-70
2021/01/30 08:13:04;;;;;;;;;0.00;0.00;;;;;;;;5037745;28;10086;-70
2021/01/30 08:15:35;;;;;;;;;1.00;1.00;;;;;;;;5025007;28;10022;-69
2021/01/30 08:18:09;;;;;;;;;0.00;0.00;;;;;;;;5033769;28;9959;-69
2021/01/30 08:20:41;;;;;;;;;0.00;0.00;;;;;;;;5029919;28;10128;-70
2021/01/30 08:23:18;;;;;;;;;0.00;0.00;;;;;;;;5027149;28;10010;-70
2021/01/30 08:25:48;;;;;;;;;0.25;0.25;;;;;;;;5019043;28;9932;-68
2021/01/30 08:28:19;;;;;;;;;0.00;0.00;;;;;;;;5026497;28;9830;-69
2021/01/30 08:30:46;;;;;;;;;1.25;1.25;;;;;;;;5024874;28;9890;-69
2021/01/30 08:33:13;;;;;;;;;0.00;0.00;;;;;;;;5041694;28;10096;-70
2021/01/30 08:35:47;;;;;;;;;1.75;1.75;;;;;;;;5036923;28;10013;-70
2021/01/30 08:38:39;;;;;;;;;1.00;0.00;;;;;;;;5044063;28;10110;-70
2021/01/30 08:41:44;;;;;;;;;2.25;1.00;;;;;;;;5045239;28;10082;-70
2021/01/30 08:44:36;;;;;;;;;0.75;0.75;;;;;;;;5045204;28;9975;-69
2021/01/30 08:47:15;;;;;;;;;2.50;2.50;;;;;;;;5025145;28;10130;-70
2021/01/30 08:49:59;;;;;;;;;1.50;1.50;;;;;;;;5044439;28;10164;-71
2021/01/30 08:52:36;;;;;;;;;2.25;1.00;;;;;;;;5034998;28;10187;-71
2021/01/30 08:55:24;;;;;;;;;5.00;5.00;;;;;;;;5044890;28;10050;-71
2021/01/30 08:57:51;;;;;;;;;3.50;3.50;;;;;;;;5040892;28;10117;-71
2021/01/30 09:00:48;;;;;;;;;3.00;3.00;;;;;;;;5035441;28;10143;-71
2021/01/30 09:03:48;;;;;;;;;3.00;3.00;;;;;;;;5044885;28;10068;-71
2021/01/30 09:06:54;;;;;;;;;6.25;4.00;;;;;;;;5045427;28;9900;-71
2021/01/30 09:09:22;;;;;;;;;4.75;4.75;;;;;;;;5030501;28;10131;-71
2021/01/30 09:11:50;;;;;;;;;2.25;2.25;;;;;;;;5044820;28;10124;-71
2021/01/30 09:14:40;;;;;;;;;2.00;2.00;;;;;;;;5044049;28;10792;-70
2021/01/30 09:17:28;;;;;;;;;3.00;2.00;;;;;;;;5043575;28;10086;-71
2021/01/30 09:20:04;;;;;;;;;1.00;1.00;;;;;;;;5039478;28;9767;-70
2021/01/30 09:22:49;;;;;;;;;5.00;3.00;;;;;;;;5043237;28;9827;-70
2021/01/30 09:25:26;;;;;;;;;2.00;2.00;;;;;;;;5039922;28;9954;-72
2021/01/30 09:27:58;;;;;;;;;6.25;4.00;;;;;;;;5031344;28;10056;-70
2021/01/30 09:30:37;;;;;;;;;6.25;6.25;;;;;;;;5010733;28;9892;-71
2021/01/30 09:33:13;;;;;;;;;8.00;6.00;;;;;;;;5038588;28;10130;-71
2021/01/30 09:35:42;;;;;;;;;3.00;3.00;;;;;;;;5043801;28;10050;-70
2021/01/30 09:38:20;;;;;;;;;10.50;8.25;;;;;;;;5043724;28;10024;-70
2021/01/30 09:40:47;;;;;;;;;0.00;0.00;;;;;;;;5044095;28;10039;-70
2021/01/30 09:43:20;;;;;;;;;2.25;1.00;;;;;;;;5030886;28;9584;-70
2021/01/30 09:45:49;;;;;;;;;4.25;4.25;;;;;;;;5044092;28;9634;-70
2021/01/30 09:48:16;;;;;;;;;2.50;2.50;;;;;;;;5042824;28;9894;-70
2021/01/30 09:50:47;;;;;;;;;1.50;1.50;;;;;;;;5043835;28;9750;-70
2021/01/30 09:53:22;;;;;;;;;1.00;1.00;;;;;;;;5043319;28;9667;-70
2021/01/30 09:56:03;;;;;;;;;1.00;1.00;;;;;;;;5043439;28;9573;-70
2021/01/30 09:58:31;;;;;;;;;1.00;1.00;;;;;;;;5034560;28;9543;-70
2021/01/30 10:01:04;;;;;;;;;1.00;1.00;;;;;;;;5038850;28;9533;-70
2021/01/30 10:03:36;;;;;;;;;0.00;0.00;;;;;;;;5036732;28;9429;-70
2021/01/30 10:06:11;;;;;;;;;1.00;1.00;;;;;;;;5041476;28;9628;-70
2021/01/30 10:08:38;;;;;;;;;0.75;0.75;;;;;;;;5043645;28;9530;-70
2021/01/30 10:11:07;;;;;;;;;1.25;1.25;;;;;;;;5042877;28;9570;-70
2021/01/30 10:13:36;;;;;;;;;1.33;0.33;;;;;;;;5031189;28;9666;-70
2021/01/30 10:16:05;;;;;;;;;0.67;0.67;;;;;;;;5023376;28;9402;-71
2021/01/30 10:18:34;;;;;;;;;1.00;1.00;;;;;;;;5025781;28;9407;-72
2021/01/30 10:21:03;;;;;;;;;1.00;1.00;;;;;;;;5034819;28;9508;-71
2021/01/30 10:23:32;;;;;;;;;1.00;1.00;;;;;;;;5043387;28;9424;-71
2021/01/30 10:26:10;;;;;;;;;2.00;0.00;;;;;;;;5030005;28;9387;-71
2021/01/30 10:28:43;;;;;;;;;1.00;1.00;;;;;;;;5031730;28;9246;-73
2021/01/30 10:31:10;;;;;;;;;1.00;1.00;;;;;;;;5022114;28;9371;-71
2021/01/30 10:33:39;;;;;;;;;0.67;0.67;;;;;;;;5016550;28;9289;-72
2021/01/30 10:36:06;;;;;;;;;0.00;0.00;;;;;;;;5030898;28;9194;-71
2021/01/30 10:38:34;;;;;;;;;1.00;1.00;;;;;;;;5042891;28;9032;-73
2021/01/30 10:41:03;;;;;;;;;2.00;1.00;;;;;;;;5031441;28;9025;-72
2021/01/30 10:43:35;;;;;;;;;0.00;0.00;;;;;;;;5023019;28;9033;-71
2021/01/30 10:46:07;;;;;;;;;1.00;1.00;;;;;;;;5027972;28;9192;-71
2021/01/30 10:48:37;;;;;;;;;1.33;1.33;;;;;;;;5015517;28;9114;-70
2021/01/30 10:51:06;;;;;;;;;1.00;1.00;;;;;;;;5006014;28;9836;-71
2021/01/30 10:53:35;;;;;;;;;1.00;1.00;;;;;;;;5025376;28;9140;-71
2021/01/30 10:56:13;;;;;;;;;1.00;1.00;;;;;;;;5044426;28;9109;-71
2021/01/30 10:58:41;;;;;;;;;0.25;0.25;;;;;;;;5029426;28;9036;-71
2021/01/30 11:01:11;;;;;;;;;2.33;1.33;;;;;;;;5029288;28;8804;-70
2021/01/30 11:03:44;;;;;;;;;1.00;1.00;;;;;;;;5029116;28;9059;-70
2021/01/30 11:06:30;;;;;;;;;1.00;1.00;;;;;;;;5026498;28;8895;-70
2021/01/30 11:08:57;;;;;;;;;1.00;1.00;;;;;;;;5020264;28;8943;-71
2021/01/30 11:11:28;;;;;;;;;1.00;1.00;;;;;;;;5029330;28;8845;-74
2021/01/30 11:13:56;;;;;;;;;1.00;1.00;;;;;;;;5011036;28;9697;-70
2021/01/30 11:16:36;;;;;;;;;0.75;0.75;;;;;;;;5024173;28;8863;-70
2021/01/30 11:19:18;;;;;;;;;1.00;1.00;;;;;;;;5014076;28;9766;-71
2021/01/30 11:21:45;;;;;;;;;0.00;0.00;;;;;;;;5011662;28;8864;-71
2021/01/30 11:24:31;;;;;;;;;3.50;1.00;;;;;;;;5023532;28;8872;-71
2021/01/30 11:26:58;;;;;;;;;1.75;1.75;;;;;;;;5028543;28;8888;-72
2021/01/30 11:29:36;;;;;;;;;2.00;2.00;;;;;;;;5019443;28;9398;-70
2021/01/30 11:32:06;;;;;;;;;1.50;1.50;;;;;;;;5025760;28;8834;-70
2021/01/30 11:34:34;;;;;;;;;0.00;0.00;;;;;;;;5019491;28;8866;-71
2021/01/30 11:37:02;;;;;;;;;1.00;1.00;;;;;;;;5043375;28;8878;-70
2021/01/30 11:39:31;;;;;;;;;1.00;1.00;;;;;;;;5028438;28;8911;-71
2021/01/30 11:41:58;;;;;;;;;2.00;1.00;;;;;;;;5024011;28;8842;-70
2021/01/30 11:44:26;;;;;;;;;1.00;1.00;;;;;;;;5035690;28;8859;-71
2021/01/30 11:46:54;;;;;;;;;0.00;0.00;;;;;;;;5025925;28;8863;-71
2021/01/30 11:49:22;;;;;;;;;1.00;1.00;;;;;;;;5040173;28;8885;-71
2021/01/30 11:51:49;;;;;;;;;1.00;1.00;;;;;;;;5036285;28;9640;-71
2021/01/30 11:54:16;;;;;;;;;0.00;0.00;;;;;;;;5032044;28;8880;-72
2021/01/30 11:56:44;;;;;;;;;1.00;1.00;;;;;;;;5018589;28;8852;-71
2021/01/30 11:59:12;;;;;;;;;2.50;1.00;;;;;;;;5027206;28;8922;-71
2021/01/30 12:01:39;;;;;;;;;1.00;1.00;;;;;;;;5035901;28;8807;-71
2021/01/30 12:04:07;;;;;;;;;1.25;1.25;;;;;;;;5030660;28;8880;-71
2021/01/30 12:06:35;;;;;;;;;1.00;1.00;;;;;;;;5047100;28;8904;-72
2021/01/30 12:09:02;;;;;;;;;1.50;1.00;;;;;;;;5029182;28;8858;-70
2021/01/30 12:11:29;;;;;;;;;3.25;1.25;;;;;;;;5035678;28;9366;-71
2021/01/30 12:13:56;;;;;;;;;0.50;0.00;;;;;;;;5040536;28;8929;-70
2021/01/30 12:16:25;;;;;;;;;1.00;1.00;;;;;;;;5027171;28;8856;-72
2021/01/30 12:18:52;;;;;;;;;0.75;0.75;;;;;;;;5032690;28;8867;-71
2021/01/30 12:21:19;;;;;;;;;3.00;1.00;;;;;;;;5030323;28;8849;-71
2021/01/30 12:23:47;;;;;;;;;1.00;1.00;;;;;;;;5025936;28;8866;-71
2021/01/30 12:26:20;;;;;;;;;0.75;0.75;;;;;;;;5032491;28;8869;-71
2021/01/30 12:28:47;;;;;;;;;2.00;0.25;;;;;;;;5032839;28;8986;-71
2021/01/30 12:31:13;;;;;;;;;1.00;1.00;;;;;;;;5033346;28;8825;-70
2021/01/30 12:33:40;;;;;;;;;2.00;0.50;;;;;;;;5021314;28;8880;-71
2021/01/30 12:36:08;;;;;;;;;3.00;1.00;;;;;;;;5038727;28;8858;-71
2021/01/30 12:38:34;;;;;;;;;2.50;1.00;;;;;;;;5032628;28;9687;-70
2021/01/30 12:41:03;;;;;;;;;1.00;1.00;;;;;;;;5036859;28;8898;-71
2021/01/30 12:43:30;;;;;;;;;1.25;1.00;;;;;;;;5030730;28;8974;-71
2021/01/30 12:45:57;;;;;;;;;1.00;1.00;;;;;;;;5036023;28;8901;-71
2021/01/30 12:48:24;;;;;;;;;1.75;1.75;;;;;;;;5028492;28;8861;-72
2021/01/30 12:50:50;;;;;;;;;2.00;0.00;;;;;;;;5025349;28;8868;-70
2021/01/30 12:53:17;;;;;;;;;1.50;0.75;;;;;;;;5022968;28;8869;-71
2021/01/30 12:55:44;;;;;;;;;0.75;0.75;;;;;;;;5028339;28;8848;-71
2021/01/30 12:58:18;;;;;;;;;1.50;0.00;;;;;;;;5024421;28;8868;-71
2021/01/30 13:00:46;;;;;;;;;0.50;0.00;;;;;;;;5028181;28;8813;-72
2021/01/30 13:03:14;;;;;;;;;0.25;0.00;;;;;;;;5010964;28;8858;-71
2021/01/30 13:05:41;;;;;;;;;1.00;1.00;;;;;;;;5028862;28;8928;-71
2021/01/30 13:08:08;;;;;;;;;0.00;0.00;;;;;;;;5020880;28;8878;-70
2021/01/30 13:10:35;;;;;;;;;3.75;0.00;;;;;;;;5029018;28;8889;-70
2021/01/30 13:13:02;;;;;;;;;0.00;0.00;;;;;;;;5030818;28;8876;-70
2021/01/30 13:15:29;;;;;;;;;1.00;1.00;;;;;;;;5031197;28;8868;-69
2021/01/30 13:17:56;;;;;;;;;3.75;0.75;;;;;;;;5031765;28;8861;-70
2021/01/30 13:20:24;;;;;;;;;0.00;0.00;;;;;;;;5025131;28;8861;-69
2021/01/30 13:22:51;;;;;;;;;2.25;0.00;;;;;;;;5038984;28;8885;-70
2021/01/30 13:25:19;;;;;;;;;2.00;0.00;;;;;;;;5044735;28;9738;-70
2021/01/30 13:27:46;;;;;;;;;0.75;0.75;;;;;;;;5039767;28;8874;-69
2021/01/30 13:30:16;;;;;;;;;2.25;1.00;;;;;;;;5024165;28;8833;-69
2021/01/30 13:32:44;;;;;;;;;2.00;1.00;;;;;;;;5028236;28;8960;-68
2021/01/30 13:35:13;;;;;;;;;1.00;1.00;;;;;;;;5023143;28;9767;-68
2021/01/30 13:37:39;;;;;;;;;1.00;1.00;;;;;;;;5038633;28;8870;-68
2021/01/30 13:40:08;;;;;;;;;0.75;0.75;;;;;;;;5022538;28;8873;-68
2021/01/30 13:42:35;;;;;;;;;2.00;1.00;;;;;;;;5024374;28;8884;-68
2021/01/30 13:45:02;;;;;;;;;1.75;1.75;;;;;;;;5032185;28;8878;-68
2021/01/30 13:47:29;;;;;;;;;1.00;1.00;;;;;;;;5030772;28;8854;-68
2021/01/30 13:49:57;;;;;;;;;1.25;1.25;;;;;;;;5039810;28;8920;-69
2021/01/30 13:52:24;;;;;;;;;0.25;0.25;;;;;;;;5044885;28;8846;-70
2021/01/30 13:54:53;;;;;;;;;0.75;0.75;;;;;;;;5041614;28;8948;-70
2021/01/30 13:57:20;;;;;;;;;2.00;1.00;;;;;;;;5036486;28;8894;-69
2021/01/30 13:59:47;;;;;;;;;2.25;1.00;;;;;;;;5034148;28;8890;-69
2021/01/30 14:02:14;;;;;;;;;1.50;1.00;;;;;;;;5043478;28;8865;-69
2021/01/30 14:04:40;;;;;;;;;0.00;0.00;;;;;;;;5043414;28;8898;-69
2021/01/30 14:07:08;;;;;;;;;1.75;1.25;;;;;;;;5043393;28;8980;-69
2021/01/30 14:09:34;;;;;;;;;2.00;1.00;;;;;;;;5024911;28;8850;-70
2021/01/30 14:12:01;;;;;;;;;3.25;2.25;;;;;;;;5022452;28;8955;-69
2021/01/30 14:14:28;;;;;;;;;3.75;2.00;;;;;;;;5021010;28;8857;-70
2021/01/30 14:16:55;;;;;;;;;3.25;2.00;;;;;;;;5040570;28;8882;-70
2021/01/30 14:19:21;;;;;;;;;1.25;0.00;;;;;;;;5038499;28;9027;-70
2021/01/30 14:21:48;;;;;;;;;0.25;0.25;;;;;;;;5042741;28;8890;-70
2021/01/30 14:24:16;;;;;;;;;2.50;1.00;;;;;;;;5034087;28;9683;-70
2021/01/30 14:26:47;;;;;;;;;2.00;2.00;;;;;;;;5024045;28;8872;-71
2021/01/30 14:29:14;;;;;;;;;1.75;1.75;;;;;;;;5027206;28;8872;-71
2021/01/30 14:31:40;;;;;;;;;0.75;0.75;;;;;;;;5029314;28;9624;-70
2021/01/30 14:34:07;;;;;;;;;5.00;3.00;;;;;;;;5037863;28;10267;-71
2021/01/30 14:36:34;;;;;;;;;6.75;1.00;;;;;;;;5043834;28;8962;-71
2021/01/30 14:39:01;;;;;;;;;1.50;1.50;;;;;;;;5030697;28;8903;-70
2021/01/30 14:41:29;;;;;;;;;2.25;2.25;;;;;;;;5027650;28;8939;-71
2021/01/30 14:43:56;;;;;;;;;3.50;2.75;;;;;;;;5036528;28;8865;-70
2021/01/30 14:46:23;;;;;;;;;1.25;1.00;;;;;;;;5029670;28;8900;-70
2021/01/30 14:48:50;;;;;;;;;2.25;1.00;;;;;;;;5005298;28;8857;-70
2021/01/30 14:51:16;;;;;;;;;2.25;1.25;;;;;;;;5026109;28;8873;-70
2021/01/30 14:53:43;;;;;;;;;2.25;2.00;;;;;;;;5036429;28;8917;-70
2021/01/30 14:56:10;;;;;;;;;0.75;0.75;;;;;;;;5035745;28;9979;-70
2021/01/30 14:58:37;;;;;;;;;2.25;2.25;;;;;;;;5033734;28;8887;-71
2021/01/30 15:01:04;;;;;;;;;1.25;1.00;;;;;;;;5027691;28;8825;-70
2021/01/30 15:03:32;;;;;;;;;2.50;2.50;;;;;;;;5043083;28;8925;-71
2021/01/30 15:05:59;;;;;;;;;1.75;1.75;;;;;;;;5025364;28;8880;-70
2021/01/30 15:08:25;;;;;;;;;5.00;1.50;;;;;;;;5043653;28;8951;-71
2021/01/30 15:10:52;;;;;;;;;1.00;1.00;;;;;;;;5041271;28;8878;-71
2021/01/30 15:13:19;;;;;;;;;2.33;1.67;;;;;;;;5041933;28;8893;-70